Time;durP1;ratioP1;P1;durP2;ratioP2;P2;SDS_P1;SDS_P2;PMS_P1;PMS_P2;Temp;Humidity;BMP_temperature;BMP_pressure;BME280_temperature;BME280_humidity;BME280_pressure;Samples;Min_cycle;Max_cycle;Signal;HPM_P1;HPM_P2
2022/02/13 00:00:11;;;;;;;4.10;2.78;;;-1.70;99.90;;;;;;5092340;28;20148;-69
2022/02/13 00:02:38;;;;;;;6.35;2.90;;;-1.70;99.90;;;;;;5092995;28;20238;-69
2022/02/13 00:05:05;;;;;;;4.10;2.75;;;-1.80;99.90;;;;;;5093099;28;20175;-69
2022/02/13 00:07:33;;;;;;;5.68;2.85;;;-1.80;99.90;;;;;;5093213;28;20644;-69
2022/02/13 00:10:00;;;;;;;5.38;2.80;;;-1.70;99.90;;;;;;5093191;28;20609;-69
2022/02/13 00:12:26;;;;;;;5.70;2.45;;;-1.70;99.90;;;;;;5093130;28;20195;-69
2022/02/13 00:14:54;;;;;;;11.43;2.50;;;-1.60;99.90;;;;;;5093046;28;20513;-69
2022/02/13 00:17:21;;;;;;;5.28;2.75;;;-1.70;99.90;;;;;;5092895;28;20152;-69
2022/02/13 00:19:47;;;;;;;5.57;2.40;;;-1.70;99.90;;;;;;5092914;28;20507;-69
2022/02/13 00:22:15;;;;;;;3.78;2.15;;;-1.60;99.90;;;;;;5092845;28;20238;-69
2022/02/13 00:24:41;;;;;;;4.72;2.63;;;-1.60;99.90;;;;;;5092978;28;20156;-69
2022/02/13 00:27:07;;;;;;;5.65;2.28;;;-1.70;99.90;;;;;;5092891;28;20243;-69
2022/02/13 00:29:33;;;;;;;4.10;1.75;;;-1.80;99.90;;;;;;5092651;28;20176;-69
2022/02/13 00:31:59;;;;;;;4.57;2.45;;;-1.90;99.90;;;;;;5092582;28;20229;-69
2022/02/13 00:34:24;;;;;;;4.03;2.15;;;-2.00;99.90;;;;;;5091440;28;20171;-69
2022/02/13 00:36:50;;;;;;;3.45;2.25;;;-2.10;99.90;;;;;;5090822;28;20235;-69
2022/02/13 00:39:16;;;;;;;8.15;2.70;;;-2.10;99.90;;;;;;5072588;28;20167;-68
2022/02/13 00:41:42;;;;;;;4.05;2.13;;;-2.00;99.90;;;;;;5072333;28;20709;-67
2022/02/13 00:44:08;;;;;;;4.20;2.30;;;-2.00;99.90;;;;;;5072409;28;20165;-68
2022/02/13 00:46:34;;;;;;;5.07;3.10;;;-1.90;99.90;;;;;;5077477;28;20254;-69
2022/02/13 00:49:00;;;;;;;3.00;1.45;;;-2.00;99.90;;;;;;5085711;28;20179;-69
2022/02/13 00:51:26;;;;;;;4.82;2.28;;;-2.10;99.90;;;;;;5092455;28;20255;-68
2022/02/13 00:53:52;;;;;;;2.88;2.10;;;-2.30;99.90;;;;;;5092286;28;20255;-69
2022/02/13 00:56:18;;;;;;;4.80;2.13;;;-2.50;99.90;;;;;;5092204;28;20152;-70
2022/02/13 00:58:46;;;;;;;4.10;2.17;;;-2.60;99.90;;;;;;5090937;28;20170;-70
2022/02/13 01:01:14;;;;;;;3.33;2.00;;;-2.60;99.90;;;;;;5092232;28;20259;-69
2022/02/13 01:03:41;;;;;;;3.90;2.70;;;-2.60;99.90;;;;;;5091779;28;20231;-69
2022/02/13 01:06:07;;;;;;;3.55;1.80;;;-2.30;99.90;;;;;;5092282;28;20152;-70
2022/02/13 01:08:33;;;;;;;4.10;1.80;;;-2.20;99.90;;;;;;5090793;28;20205;-69
2022/02/13 01:11:00;;;;;;;3.88;2.30;;;-2.20;99.90;;;;;;5091464;28;20192;-69
2022/02/13 01:13:28;;;;;;;5.25;2.85;;;-2.10;99.90;;;;;;5091873;28;20186;-69
2022/02/13 01:15:54;;;;;;;2.90;1.80;;;-2.10;99.90;;;;;;5091913;28;20163;-70
2022/02/13 01:18:19;;;;;;;4.07;2.08;;;-2.10;99.90;;;;;;5091836;28;20641;-69
2022/02/13 01:20:46;;;;;;;8.50;2.15;;;-2.10;99.90;;;;;;5091841;28;20199;-70
2022/02/13 01:23:12;;;;;;;2.10;1.70;;;-2.20;99.90;;;;;;5091851;28;20220;-69
2022/02/13 01:25:38;;;;;;;4.07;2.17;;;-2.30;99.90;;;;;;5091802;28;20197;-69
2022/02/13 01:28:05;;;;;;;4.43;2.08;;;-2.50;99.90;;;;;;5091790;28;20165;-70
2022/02/13 01:30:32;;;;;;;3.40;2.33;;;-2.50;99.90;;;;;;5091521;28;20263;-69
2022/02/13 01:32:59;;;;;;;3.15;2.08;;;-2.50;99.90;;;;;;5091511;28;20195;-69
2022/02/13 01:35:25;;;;;;;6.55;2.47;;;-2.40;99.90;;;;;;5091630;28;20184;-70
2022/02/13 01:37:51;;;;;;;3.30;1.80;;;-2.50;99.90;;;;;;5081179;28;20164;-70
2022/02/13 01:40:17;;;;;;;5.07;2.90;;;-2.60;99.90;;;;;;5071474;28;20161;-69
2022/02/13 01:42:43;;;;;;;4.07;2.33;;;-2.80;99.90;;;;;;5071234;28;20215;-70
2022/02/13 01:45:10;;;;;;;3.78;2.00;;;-3.00;99.90;;;;;;5071326;28;20165;-70
2022/02/13 01:47:37;;;;;;;5.38;2.08;;;-3.20;99.90;;;;;;5071301;28;20153;-69
2022/02/13 01:50:06;;;;;;;1.95;1.67;;;-3.30;99.90;;;;;;5071248;28;20160;-69
2022/02/13 01:52:33;;;;;;;3.53;1.95;;;-3.40;99.90;;;;;;5071017;28;20207;-69
2022/02/13 01:55:00;;;;;;;2.97;2.28;;;-3.50;99.90;;;;;;5071144;28;20153;-70
2022/02/13 01:57:27;;;;;;;4.45;2.42;;;-3.40;99.90;;;;;;5071225;28;20146;-68
2022/02/13 01:59:55;;;;;;;5.28;2.65;;;-3.50;99.90;;;;;;5071056;28;20596;-69
2022/02/13 02:02:21;;;;;;;6.03;3.65;;;-3.60;99.90;;;;;;5070648;28;20220;-69
2022/02/13 02:04:50;;;;;;;5.13;2.25;;;-3.70;99.90;;;;;;5070806;28;20173;-70
2022/02/13 02:07:16;;;;;;;5.00;2.45;;;-3.80;99.90;;;;;;5069601;28;20161;-69
2022/02/13 02:09:46;;;;;;;4.15;2.30;;;-3.90;99.90;;;;;;5070978;28;20214;-70
2022/02/13 02:12:12;;;;;;;3.85;2.60;;;-3.90;99.90;;;;;;5070674;28;20208;-69
2022/02/13 02:14:37;;;;;;;6.45;3.38;;;-3.90;99.90;;;;;;5070768;28;20161;-69
2022/02/13 02:17:03;;;;;;;5.80;3.35;;;-3.90;99.90;;;;;;5070766;28;20228;-69
2022/02/13 02:19:31;;;;;;;4.22;2.83;;;-4.00;99.90;;;;;;5070650;28;20212;-69
2022/02/13 02:21:57;;;;;;;7.53;3.30;;;-4.00;99.90;;;;;;5069673;28;20181;-70
2022/02/13 02:24:23;;;;;;;5.40;3.63;;;-4.00;99.90;;;;;;5070578;28;20153;-69
2022/02/13 02:26:50;;;;;;;4.97;3.15;;;-4.00;99.90;;;;;;5070423;28;20167;-69
2022/02/13 02:29:17;;;;;;;5.38;2.72;;;-4.00;99.90;;;;;;5070400;28;20169;-70
2022/02/13 02:31:43;;;;;;;5.38;3.05;;;-4.00;99.90;;;;;;5069715;28;20200;-69
2022/02/13 02:34:09;;;;;;;11.63;4.15;;;-4.00;99.90;;;;;;5068829;28;20188;-69
2022/02/13 02:36:35;;;;;;;10.05;5.00;;;-3.90;99.90;;;;;;5070310;28;20157;-70
2022/02/13 02:39:02;;;;;;;10.93;5.00;;;-3.80;99.90;;;;;;5069001;28;20163;-69
2022/02/13 02:41:29;;;;;;;16.13;6.45;;;-3.80;99.90;;;;;;5070156;28;20199;-69
2022/02/13 02:43:55;;;;;;;10.02;5.53;;;-3.80;99.90;;;;;;5070430;28;20163;-70
2022/02/13 02:46:21;;;;;;;10.75;5.78;;;-3.80;99.90;;;;;;5070162;28;20161;-69
2022/02/13 02:48:47;;;;;;;11.52;7.28;;;-3.90;99.90;;;;;;5070044;28;20157;-70
2022/02/13 02:51:13;;;;;;;7.68;5.30;;;-4.10;99.90;;;;;;5070061;28;20279;-69
2022/02/13 02:53:41;;;;;;;10.30;5.28;;;-4.20;99.90;;;;;;5069955;28;20184;-69
2022/02/13 02:56:07;;;;;;;8.68;5.80;;;-4.30;99.90;;;;;;5070085;28;20180;-69
2022/02/13 02:58:32;;;;;;;11.23;5.43;;;-4.40;99.90;;;;;;5069968;28;20149;-69
2022/02/13 03:00:58;;;;;;;15.25;5.05;;;-4.40;99.90;;;;;;5069752;28;20196;-70
2022/02/13 03:03:24;;;;;;;14.25;5.18;;;-4.40;99.90;;;;;;5069693;28;20224;-69
2022/02/13 03:05:51;;;;;;;12.82;6.15;;;-4.50;99.90;;;;;;5069811;28;20231;-68
2022/02/13 03:08:18;;;;;;;7.45;4.90;;;-4.60;99.90;;;;;;5069972;28;20167;-69
2022/02/13 03:10:45;;;;;;;11.55;5.60;;;-4.60;99.90;;;;;;5068388;28;20194;-68
2022/02/13 03:13:14;;;;;;;8.82;5.05;;;-4.70;99.90;;;;;;5069570;28;20184;-69
2022/02/13 03:15:41;;;;;;;8.63;5.63;;;-4.70;99.90;;;;;;5069616;28;20251;-69
2022/02/13 03:18:07;;;;;;;9.70;5.15;;;-4.60;99.90;;;;;;5069589;28;20208;-69
2022/02/13 03:20:33;;;;;;;10.65;4.47;;;-4.60;99.90;;;;;;5069665;28;20234;-70
2022/02/13 03:22:59;;;;;;;9.50;5.15;;;-4.50;99.90;;;;;;5069518;28;20161;-68
2022/02/13 03:25:24;;;;;;;9.38;4.95;;;-4.40;99.90;;;;;;5069395;28;20184;-71
2022/02/13 03:27:50;;;;;;;9.63;5.07;;;-4.40;99.90;;;;;;5069388;28;20214;-70
2022/02/13 03:30:16;;;;;;;8.63;5.72;;;-4.50;99.90;;;;;;5069394;28;20172;-70
2022/02/13 03:32:43;;;;;;;8.90;4.68;;;-4.50;99.90;;;;;;5069055;28;20200;-70
2022/02/13 03:35:09;;;;;;;8.90;5.60;;;-4.50;99.90;;;;;;5069276;28;20161;-70
2022/02/13 03:37:37;;;;;;;13.50;4.65;;;-4.40;99.90;;;;;;5069359;28;20164;-70
2022/02/13 03:40:05;;;;;;;11.02;4.90;;;-4.30;99.90;;;;;;5069308;28;20203;-71
2022/02/13 03:42:30;;;;;;;10.65;5.53;;;-4.30;99.90;;;;;;5069135;28;20200;-70
2022/02/13 03:44:56;;;;;;;13.43;5.57;;;-4.30;99.90;;;;;;5069279;28;20191;-70
2022/02/13 03:47:23;;;;;;;10.07;5.30;;;-4.40;99.90;;;;;;5069211;28;20168;-70
2022/02/13 03:49:49;;;;;;;11.68;6.65;;;-4.40;99.90;;;;;;5069156;28;20167;-70
2022/02/13 03:52:15;;;;;;;12.15;5.95;;;-4.50;99.90;;;;;;5068898;28;20228;-69
2022/02/13 03:54:41;;;;;;;8.48;4.22;;;-4.50;99.90;;;;;;5069017;28;20220;-69
2022/02/13 03:57:07;;;;;;;9.88;5.13;;;-4.60;99.90;;;;;;5069186;28;20191;-69
2022/02/13 03:59:33;;;;;;;8.63;5.10;;;-4.60;99.90;;;;;;5069037;28;20157;-69
2022/02/13 04:01:59;;;;;;;9.27;5.15;;;-4.70;99.90;;;;;;5068678;28;20704;-69
2022/02/13 04:04:25;;;;;;;7.35;4.25;;;-4.60;99.90;;;;;;5068864;28;20195;-69
2022/02/13 04:06:51;;;;;;;6.60;4.85;;;-4.60;99.90;;;;;;5068897;28;20161;-69
2022/02/13 04:09:17;;;;;;;9.00;4.57;;;-4.70;99.90;;;;;;5068841;28;20491;-69
2022/02/13 04:11:43;;;;;;;8.15;3.63;;;-4.70;99.90;;;;;;5068830;28;20189;-69
2022/02/13 04:14:08;;;;;;;8.60;4.45;;;-4.60;99.90;;;;;;5068934;28;20219;-69
2022/02/13 04:16:34;;;;;;;6.03;4.13;;;-4.70;99.90;;;;;;5068911;28;20157;-69
2022/02/13 04:19:00;;;;;;;10.90;4.53;;;-4.70;99.90;;;;;;5068784;28;20158;-69
2022/02/13 04:21:26;;;;;;;7.80;4.15;;;-4.80;99.90;;;;;;5067392;28;20203;-69
2022/02/13 04:23:52;;;;;;;11.98;5.13;;;-4.80;99.90;;;;;;5068807;28;20229;-69
2022/02/13 04:26:18;;;;;;;7.35;3.85;;;-4.80;99.90;;;;;;5068833;28;20212;-69
2022/02/13 04:28:44;;;;;;;6.50;4.22;;;-4.90;99.90;;;;;;5067456;28;20173;-68
2022/02/13 04:31:10;;;;;;;9.70;4.65;;;-5.00;99.90;;;;;;5068687;28;20189;-69
2022/02/13 04:33:35;;;;;;;5.65;3.90;;;-5.00;99.90;;;;;;5068655;28;20252;-69
2022/02/13 04:36:03;;;;;;;9.35;4.20;;;-5.00;99.90;;;;;;5068648;28;20185;-69
2022/02/13 04:38:29;;;;;;;7.03;4.00;;;-5.10;99.90;;;;;;5068810;28;20210;-69
2022/02/13 04:40:55;;;;;;;7.82;3.88;;;-5.10;99.90;;;;;;5068591;28;20189;-69
2022/02/13 04:43:20;;;;;;;6.20;4.25;;;-5.10;99.90;;;;;;5068669;28;20172;-69
2022/02/13 04:45:46;;;;;;;5.82;3.95;;;-5.10;99.90;;;;;;5070999;28;20165;-69
2022/02/13 04:48:12;;;;;;;11.18;3.90;;;-5.20;99.90;;;;;;5072265;28;20173;-69
2022/02/13 04:50:39;;;;;;;8.02;3.60;;;-5.20;99.90;;;;;;5072257;28;20165;-69
2022/02/13 04:53:04;;;;;;;6.40;3.72;;;-5.10;99.90;;;;;;5072320;28;20192;-69
2022/02/13 04:55:30;;;;;;;11.52;5.25;;;-5.10;99.90;;;;;;5072178;28;20233;-69
2022/02/13 04:57:56;;;;;;;4.47;3.95;;;-5.10;99.90;;;;;;5072214;28;20160;-69
2022/02/13 05:00:22;;;;;;;6.53;3.85;;;-5.10;99.90;;;;;;5070834;28;20199;-69
2022/02/13 05:02:48;;;;;;;8.75;3.40;;;-5.10;99.90;;;;;;5071820;28;20256;-68
2022/02/13 05:05:14;;;;;;;9.32;4.88;;;-5.20;99.90;;;;;;5071989;28;20164;-69
2022/02/13 05:07:41;;;;;;;7.30;4.78;;;-5.30;99.90;;;;;;5071875;28;20210;-69
2022/02/13 05:10:08;;;;;;;9.10;5.40;;;-5.40;99.90;;;;;;5071877;28;20161;-68
2022/02/13 05:12:34;;;;;;;9.02;3.75;;;-5.30;99.90;;;;;;5071673;28;20188;-69
2022/02/13 05:15:00;;;;;;;11.50;3.97;;;-5.40;99.90;;;;;;5071921;28;20164;-68
2022/02/13 05:17:26;;;;;;;5.78;3.15;;;-5.30;99.90;;;;;;5071752;28;20165;-69
2022/02/13 05:19:52;;;;;;;7.25;4.10;;;-5.30;99.90;;;;;;5071718;28;20164;-68
2022/02/13 05:22:18;;;;;;;5.30;3.25;;;-5.20;99.90;;;;;;5071625;28;20249;-69
2022/02/13 05:24:45;;;;;;;5.15;3.28;;;-5.30;99.90;;;;;;5071691;28;20153;-69
2022/02/13 05:27:12;;;;;;;5.35;3.13;;;-5.30;99.90;;;;;;5071533;28;20254;-69
2022/02/13 05:29:38;;;;;;;6.60;2.95;;;-5.40;99.90;;;;;;5071565;28;20248;-69
2022/02/13 05:32:05;;;;;;;6.55;3.10;;;-5.40;99.90;;;;;;5071354;28;20559;-69
2022/02/13 05:34:32;;;;;;;6.13;3.30;;;-5.40;99.90;;;;;;5071434;28;20153;-69
2022/02/13 05:36:58;;;;;;;13.90;3.92;;;-5.40;99.90;;;;;;5071453;28;20153;-69
2022/02/13 05:39:24;;;;;;;4.43;2.95;;;-5.40;99.90;;;;;;5071495;28;20168;-69
2022/02/13 05:41:50;;;;;;;4.68;2.80;;;-5.40;99.90;;;;;;5071409;28;20200;-69
2022/02/13 05:44:16;;;;;;;6.15;3.38;;;-5.30;99.90;;;;;;5071427;28;20224;-69
2022/02/13 05:46:42;;;;;;;6.47;3.08;;;-5.20;99.90;;;;;;5071256;28;20203;-69
2022/02/13 05:49:08;;;;;;;6.40;2.85;;;-5.30;99.90;;;;;;5071341;28;20271;-70
2022/02/13 05:51:35;;;;;;;4.93;2.80;;;-5.30;99.90;;;;;;5070982;28;20201;-69
2022/02/13 05:54:02;;;;;;;5.20;2.40;;;-5.40;99.90;;;;;;5071178;28;20200;-69
2022/02/13 05:56:28;;;;;;;9.90;3.08;;;-5.40;99.90;;;;;;5071224;28;20212;-69
2022/02/13 05:58:54;;;;;;;8.20;2.80;;;-5.40;99.90;;;;;;5071040;28;20161;-69
2022/02/13 06:01:20;;;;;;;11.10;3.88;;;-5.20;99.90;;;;;;5069640;28;20193;-68
2022/02/13 06:03:47;;;;;;;8.50;3.63;;;-5.10;99.90;;;;;;5070792;28;20172;-68
2022/02/13 06:06:13;;;;;;;5.25;3.22;;;-5.10;99.90;;;;;;5070772;28;20157;-69
2022/02/13 06:08:40;;;;;;;4.90;2.58;;;-5.00;99.90;;;;;;5070640;28;20165;-69
2022/02/13 06:11:07;;;;;;;6.60;3.42;;;-5.00;99.90;;;;;;5070627;28;20229;-69
2022/02/13 06:13:34;;;;;;;6.00;3.25;;;-5.00;99.90;;;;;;5070591;28;20184;-70
2022/02/13 06:16:01;;;;;;;6.90;3.90;;;-5.00;99.90;;;;;;5070723;28;20149;-69
2022/02/13 06:18:30;;;;;;;4.72;3.80;;;-5.00;99.90;;;;;;5070606;28;20161;-69
2022/02/13 06:20:57;;;;;;;7.10;4.13;;;-5.00;99.90;;;;;;5070467;28;20185;-68
2022/02/13 06:23:23;;;;;;;9.48;3.30;;;-5.00;99.90;;;;;;5070441;28;20160;-69
2022/02/13 06:25:48;;;;;;;21.55;4.60;;;-4.90;99.90;;;;;;5070440;28;20232;-69
2022/02/13 06:28:14;;;;;;;4.47;3.78;;;-4.90;99.90;;;;;;5070384;28;20172;-69
2022/02/13 06:30:41;;;;;;;10.95;4.07;;;-4.90;99.90;;;;;;5070202;28;20176;-68
2022/02/13 06:33:07;;;;;;;8.48;4.45;;;-4.80;99.90;;;;;;5070306;28;20208;-68
2022/02/13 06:35:33;;;;;;;7.93;4.38;;;-4.70;99.90;;;;;;5070239;28;20184;-68
2022/02/13 06:38:02;;;;;;;8.23;4.70;;;-4.70;99.90;;;;;;5068953;28;20216;-69
2022/02/13 06:40:29;;;;;;;7.20;3.92;;;-4.50;99.90;;;;;;5070338;28;20153;-68
2022/02/13 06:42:55;;;;;;;7.63;3.40;;;-4.40;99.90;;;;;;5068974;28;20164;-69
2022/02/13 06:45:21;;;;;;;7.15;3.28;;;-4.50;99.90;;;;;;5070190;28;20157;-69
2022/02/13 06:47:47;;;;;;;5.60;3.53;;;-4.50;99.90;;;;;;5070031;28;20160;-68
2022/02/13 06:50:13;;;;;;;5.53;3.67;;;-4.10;99.90;;;;;;5069929;28;20183;-68
2022/02/13 06:52:39;;;;;;;5.85;3.40;;;-4.00;99.90;;;;;;5068626;28;20211;-69
2022/02/13 06:55:06;;;;;;;7.13;4.15;;;-4.00;99.90;;;;;;5070016;28;20157;-69
2022/02/13 06:57:32;;;;;;;7.90;4.32;;;-4.00;99.90;;;;;;5070021;28;20158;-69
2022/02/13 06:59:58;;;;;;;8.30;4.25;;;-3.90;99.90;;;;;;5069760;28;20176;-69
2022/02/13 07:02:24;;;;;;;9.63;4.65;;;-3.90;99.90;;;;;;5069534;28;20647;-69
2022/02/13 07:04:50;;;;;;;6.22;4.75;;;-3.90;99.90;;;;;;5069749;28;20184;-69
2022/02/13 07:07:16;;;;;;;6.18;4.43;;;-3.80;99.90;;;;;;5069311;28;20156;-69
2022/02/13 07:09:42;;;;;;;12.07;6.05;;;-3.60;99.90;;;;;;5069574;28;20153;-68
2022/02/13 07:12:12;;;;;;;10.57;5.10;;;-3.40;99.90;;;;;;5069371;28;20188;-69
2022/02/13 07:14:41;;;;;;;12.82;5.53;;;-3.30;99.90;;;;;;5069599;28;20196;-69
2022/02/13 07:17:07;;;;;;;10.45;6.80;;;-3.10;99.90;;;;;;5069471;28;20177;-69
2022/02/13 07:19:33;;;;;;;7.10;4.60;;;-3.00;99.90;;;;;;5069442;28;20690;-69
2022/02/13 07:21:59;;;;;;;8.63;5.43;;;-2.40;99.90;;;;;;5073961;28;20207;-69
2022/02/13 07:24:25;;;;;;;7.57;5.55;;;-2.00;99.90;;;;;;5082726;28;20156;-68
2022/02/13 07:26:51;;;;;;;8.57;5.53;;;-1.90;99.90;;;;;;5073415;28;20172;-69
2022/02/13 07:29:17;;;;;;;11.68;5.97;;;-1.60;99.90;;;;;;5069829;28;20159;-69
2022/02/13 07:31:43;;;;;;;11.73;5.78;;;-1.60;99.90;;;;;;5088209;28;20192;-69
2022/02/13 07:34:08;;;;;;;8.95;5.03;;;-1.70;99.90;;;;;;5089354;28;20251;-69
2022/02/13 07:36:35;;;;;;;8.70;5.80;;;-1.70;99.90;;;;;;5089342;28;20233;-69
2022/02/13 07:39:03;;;;;;;10.18;6.22;;;-1.60;99.90;;;;;;5078482;28;20248;-68
2022/02/13 07:41:29;;;;;;;9.10;5.13;;;-1.60;99.90;;;;;;5069207;28;20219;-68
2022/02/13 07:43:55;;;;;;;6.35;5.68;;;-1.60;99.90;;;;;;5069283;28;20161;-69
2022/02/13 07:46:23;;;;;;;11.35;5.38;;;-1.60;99.90;;;;;;5069090;28;20156;-68
2022/02/13 07:48:50;;;;;;;6.53;5.03;;;-1.50;99.90;;;;;;5067783;28;20280;-69
2022/02/13 07:51:17;;;;;;;11.02;5.80;;;-1.40;99.90;;;;;;5068856;28;20200;-68
2022/02/13 07:53:45;;;;;;;10.02;5.47;;;-1.10;99.90;;;;;;5069012;28;20184;-68
2022/02/13 07:56:11;;;;;;;14.20;7.05;;;1.90;99.90;;;;;;5080400;28;20183;-69
2022/02/13 07:58:37;;;;;;;11.05;5.25;;;2.10;99.90;;;;;;5089077;28;20156;-68
2022/02/13 08:01:05;;;;;;;7.50;5.22;;;1.40;99.90;;;;;;5088947;28;20184;-69
2022/02/13 08:03:32;;;;;;;11.20;5.70;;;0.70;99.90;;;;;;5087457;28;20283;-69
2022/02/13 08:05:58;;;;;;;9.85;5.07;;;0.20;99.90;;;;;;5088995;28;20156;-69
2022/02/13 08:08:24;;;;;;;7.85;5.32;;;0.00;99.90;;;;;;5089083;28;20244;-68
2022/02/13 08:10:49;;;;;;;5.30;4.28;;;-0.10;99.90;;;;;;5087478;28;20204;-68
2022/02/13 08:13:16;;;;;;;13.38;4.82;;;0.00;99.90;;;;;;5087395;28;20199;-69
2022/02/13 08:15:43;;;;;;;7.80;4.55;;;0.10;99.90;;;;;;5089038;28;20178;-69
2022/02/13 08:18:15;;;;;;;8.73;4.57;;;0.30;99.90;;;;;;5088908;28;20152;-69
2022/02/13 08:20:41;;;;;;;14.23;4.80;;;0.60;99.90;;;;;;5089745;28;20600;-69
2022/02/13 08:23:09;;;;;;;6.15;4.05;;;0.80;99.90;;;;;;5091107;28;20214;-69
2022/02/13 08:25:35;;;;;;;6.85;4.75;;;1.10;99.90;;;;;;5084539;28;20188;-68
2022/02/13 08:28:01;;;;;;;6.97;4.82;;;1.30;99.90;;;;;;5072774;28;20157;-68
2022/02/13 08:30:27;;;;;;;9.43;5.47;;;1.40;99.90;;;;;;5085019;28;20179;-68
2022/02/13 08:32:57;;;;;;;6.75;4.35;;;2.70;99.90;;;;;;5092520;28;20196;-69
2022/02/13 08:35:26;;;;;;;10.55;4.95;;;5.60;99.90;;;;;;5092606;28;20144;-69
2022/02/13 08:37:52;;;;;;;9.98;4.72;;;9.30;99.90;;;;;;5092566;28;20190;-69
2022/02/13 08:40:18;;;;;;;10.27;5.10;;;11.50;99.10;;;;;;5092319;28;20206;-69
2022/02/13 08:42:45;;;;;;;7.28;4.15;;;13.00;97.40;;;;;;5092127;28;20631;-68
2022/02/13 08:45:11;;;;;;;12.70;4.72;;;13.90;95.70;;;;;;5092327;28;20152;-69
2022/02/13 08:47:37;;;;;;;7.28;4.22;;;14.40;94.30;;;;;;5092274;28;20167;-68
2022/02/13 08:50:03;;;;;;;8.25;4.05;;;14.80;93.60;;;;;;5092184;28;20266;-69
2022/02/13 08:52:29;;;;;;;9.52;4.40;;;15.50;93.00;;;;;;5092098;28;20236;-68
2022/02/13 08:54:55;;;;;;;10.15;4.30;;;16.60;91.80;;;;;;5092129;28;20175;-69
2022/02/13 08:57:21;;;;;;;7.25;4.32;;;16.80;91.00;;;;;;5092083;28;20160;-69
2022/02/13 08:59:47;;;;;;;6.13;3.63;;;15.90;92.40;;;;;;5092149;28;20191;-68
2022/02/13 09:02:12;;;;;;;8.80;4.22;;;16.70;91.10;;;;;;5084631;28;20292;-69
2022/02/13 09:04:38;;;;;;;8.27;4.85;;;16.80;90.90;;;;;;5078030;28;20184;-69
2022/02/13 09:07:04;;;;;;;9.15;4.72;;;16.30;90.20;;;;;;5084153;28;20187;-69
2022/02/13 09:09:32;;;;;;;4.88;3.97;;;16.50;91.00;;;;;;5091369;28;20199;-68
2022/02/13 09:11:58;;;;;;;6.88;4.28;;;15.70;90.60;;;;;;5091809;28;20160;-69
2022/02/13 09:14:25;;;;;;;11.50;4.90;;;15.40;91.10;;;;;;5091716;28;20271;-68
2022/02/13 09:16:51;;;;;;;7.40;4.40;;;14.60;91.70;;;;;;5091807;28;20187;-69
2022/02/13 09:19:19;;;;;;;8.10;4.25;;;13.70;92.80;;;;;;5091700;28;20156;-68
2022/02/13 09:21:51;;;;;;;7.15;4.22;;;14.50;92.40;;;;;;5092019;28;20216;-68
2022/02/13 09:24:19;;;;;;;9.45;5.18;;;14.50;91.10;;;;;;5090391;28;20226;-68
2022/02/13 09:26:45;;;;;;;9.07;4.93;;;13.50;92.60;;;;;;5090441;28;20266;-68
2022/02/13 09:29:11;;;;;;;8.13;5.25;;;14.40;91.60;;;;;;5091674;28;20167;-68
2022/02/13 09:31:37;;;;;;;5.93;4.45;;;14.20;92.00;;;;;;5090966;28;20621;-69
2022/02/13 09:34:03;;;;;;;6.75;4.10;;;14.40;91.60;;;;;;5091424;28;20211;-68
2022/02/13 09:36:29;;;;;;;7.63;4.47;;;14.80;90.90;;;;;;5091537;28;20160;-68
2022/02/13 09:38:55;;;;;;;9.02;4.35;;;13.90;91.70;;;;;;5091405;28;20160;-69
2022/02/13 09:41:21;;;;;;;4.95;3.50;;;13.20;92.00;;;;;;5091302;28;20152;-68
2022/02/13 09:43:48;;;;;;;13.15;4.55;;;12.00;93.50;;;;;;5089946;28;20175;-68
2022/02/13 09:46:15;;;;;;;5.53;3.90;;;12.00;94.10;;;;;;5091348;28;20152;-68
2022/02/13 09:48:42;;;;;;;5.35;3.53;;;11.80;93.40;;;;;;5091048;28;20651;-68
2022/02/13 09:51:13;;;;;;;8.02;4.28;;;12.00;93.80;;;;;;5088943;28;20244;-68
2022/02/13 09:53:39;;;;;;;8.10;3.90;;;12.00;93.20;;;;;;5089025;28;20214;-68
2022/02/13 09:56:06;;;;;;;7.25;3.90;;;12.10;93.10;;;;;;5089805;28;20160;-68
2022/02/13 09:58:33;;;;;;;6.15;3.88;;;11.80;94.00;;;;;;5089117;28;20172;-68
2022/02/13 10:01:06;;;;;;;7.38;4.65;;;11.60;94.40;;;;;;5090718;28;20617;-68
2022/02/13 10:03:34;;;;;;;7.43;3.80;;;12.60;94.40;;;;;;5090463;28;20219;-68
2022/02/13 10:06:22;;;;;;;6.20;3.75;;;13.70;92.30;;;;;;5091005;28;20602;-68
2022/02/13 10:08:51;;;;;;;5.22;3.65;;;13.10;92.90;;;;;;5090632;28;20198;-67
2022/02/13 10:11:37;;;;;;;5.03;3.28;;;13.20;92.20;;;;;;5090702;28;20153;-68
2022/02/13 10:14:10;;;;;;;9.88;4.38;;;13.50;92.30;;;;;;5090301;28;20180;-68
2022/02/13 10:16:39;;;;;;;4.47;3.35;;;11.70;93.70;;;;;;5090619;28;20617;-67
2022/02/13 10:19:15;;;;;;;4.53;3.25;;;11.40;94.50;;;;;;5090263;28;20156;-67
2022/02/13 10:21:51;;;;;;;4.22;2.95;;;12.00;93.80;;;;;;5090342;28;20188;-68
2022/02/13 10:24:31;;;;;;;7.45;3.25;;;11.60;93.40;;;;;;5090446;28;20297;-68
2022/02/13 10:26:57;;;;;;;3.13;2.50;;;11.50;93.30;;;;;;5090285;28;20234;-68
2022/02/13 10:29:27;;;;;;;7.18;3.20;;;11.20;93.70;;;;;;5090105;28;20179;-68
2022/02/13 10:32:10;;;;;;;6.78;3.50;;;12.10;92.90;;;;;;5090148;28;20240;-68
2022/02/13 10:34:36;;;;;;;3.97;2.63;;;12.40;93.20;;;;;;5090130;28;20161;-67
2022/02/13 10:37:02;;;;;;;5.32;2.83;;;12.60;92.70;;;;;;5088762;28;20527;-68
2022/02/13 10:39:28;;;;;;;4.93;2.95;;;12.40;92.70;;;;;;5088767;28;20241;-67
2022/02/13 10:41:55;;;;;;;7.93;2.90;;;11.90;93.00;;;;;;5089945;28;20148;-67
2022/02/13 10:44:31;;;;;;;5.38;2.85;;;11.50;93.20;;;;;;5089718;28;20526;-68
2022/02/13 10:46:57;;;;;;;3.85;2.80;;;11.70;92.60;;;;;;5090097;28;20148;-67
2022/02/13 10:49:23;;;;;;;2.88;2.10;;;12.10;93.50;;;;;;5088579;28;20204;-68
2022/02/13 10:51:51;;;;;;;4.25;2.78;;;12.30;92.50;;;;;;5088568;28;20243;-67
2022/02/13 10:54:18;;;;;;;3.70;2.25;;;11.80;93.70;;;;;;5089684;28;20184;-67
2022/02/13 10:56:44;;;;;;;3.22;2.60;;;11.40;93.10;;;;;;5089697;28;20184;-67
2022/02/13 10:59:11;;;;;;;6.25;2.75;;;11.90;94.60;;;;;;5089460;28;20167;-67
2022/02/13 11:01:38;;;;;;;3.28;2.30;;;12.40;92.30;;;;;;5089462;28;20247;-67
2022/02/13 11:04:05;;;;;;;5.28;2.58;;;12.40;92.00;;;;;;5089744;28;20211;-67
2022/02/13 11:06:33;;;;;;;13.45;3.00;;;12.90;92.60;;;;;;5089516;28;20168;-68
2022/02/13 11:09:23;;;;;;;3.45;2.53;;;13.00;91.90;;;;;;5089558;28;20184;-67
2022/02/13 11:11:51;;;;;;;6.03;2.30;;;12.00;92.90;;;;;;5089509;28;20191;-67
2022/02/13 11:14:47;;;;;;;4.57;2.80;;;11.20;93.50;;;;;;5084591;28;20195;-66
2022/02/13 11:17:33;;;;;;;3.75;2.50;;;11.80;92.90;;;;;;5096494;28;20253;-67
2022/02/13 11:20:01;;;;;;;4.18;2.35;;;11.60;94.00;;;;;;5093125;28;20199;-67
2022/02/13 11:22:37;;;;;;;3.13;2.53;;;11.70;93.90;;;;;;5105579;28;20193;-68
2022/02/13 11:25:04;;;;;;;3.67;2.78;;;12.20;92.80;;;;;;5096396;28;20222;-68
2022/02/13 11:27:58;;;;;;;7.32;2.65;;;12.00;92.60;;;;;;5097598;28;20231;-68
2022/02/13 11:30:49;;;;;;;6.40;3.17;;;11.60;92.90;;;;;;5105367;28;20191;-68
2022/02/13 11:33:30;;;;;;;3.22;2.80;;;11.60;93.00;;;;;;5097976;28;20282;-68
2022/02/13 11:35:57;;;;;;;14.60;4.30;;;11.80;93.40;;;;;;5093859;28;20159;-68
2022/02/13 11:38:47;;;;;;;4.30;3.00;;;12.90;91.70;;;;;;5105252;28;20164;-69
2022/02/13 11:41:19;;;;;;;6.03;3.42;;;14.00;91.30;;;;;;5096169;28;20561;-68
2022/02/13 11:43:45;;;;;;;3.90;2.88;;;14.60;90.10;;;;;;5095254;28;20174;-67
2022/02/13 11:46:40;;;;;;;4.47;2.90;;;13.10;91.10;;;;;;5105188;28;20190;-68
2022/02/13 11:49:15;;;;;;;5.82;2.90;;;12.90;92.30;;;;;;5096441;28;20247;-67
2022/02/13 11:51:52;;;;;;;4.93;2.95;;;13.10;91.90;;;;;;5095586;28;20206;-67
2022/02/13 11:54:44;;;;;;;3.83;2.90;;;13.80;92.20;;;;;;5105064;28;20277;-67
2022/02/13 11:57:21;;;;;;;6.32;3.03;;;13.50;90.40;;;;;;5096858;28;20167;-67
2022/02/13 11:59:51;;;;;;;3.17;2.28;;;13.20;91.00;;;;;;5093515;28;20202;-67
2022/02/13 12:02:40;;;;;;;4.68;2.50;;;12.70;91.30;;;;;;5105017;28;20211;-67
2022/02/13 12:05:06;;;;;;;3.72;2.78;;;12.40;91.10;;;;;;5096543;28;20187;-67
2022/02/13 12:07:38;;;;;;;3.45;2.42;;;12.70;91.90;;;;;;5096709;28;20202;-67
2022/02/13 12:10:04;;;;;;;4.25;2.97;;;12.90;91.50;;;;;;5104582;28;20195;-67
2022/02/13 12:12:33;;;;;;;4.18;2.55;;;12.90;91.00;;;;;;5091663;28;20159;-67
2022/02/13 12:14:59;;;;;;;3.50;2.22;;;12.20;91.10;;;;;;5101477;28;20247;-67
2022/02/13 12:17:26;;;;;;;8.48;2.75;;;12.10;91.70;;;;;;5099057;28;20175;-67
2022/02/13 12:20:11;;;;;;;3.60;2.78;;;12.00;91.60;;;;;;5093870;28;20237;-67
2022/02/13 12:22:39;;;;;;;7.35;2.20;;;11.70;93.10;;;;;;5076411;28;20174;-67
2022/02/13 12:25:10;;;;;;;3.78;2.20;;;11.00;93.40;;;;;;5100768;28;20199;-67
2022/02/13 12:27:37;;;;;;;3.85;2.65;;;12.30;93.50;;;;;;5100401;28;20193;-67
2022/02/13 12:30:06;;;;;;;2.97;2.45;;;13.10;91.70;;;;;;5092427;28;20202;-68
2022/02/13 12:32:34;;;;;;;2.88;2.38;;;14.00;90.70;;;;;;5105038;28;20196;-68
2022/02/13 12:35:05;;;;;;;5.30;2.47;;;14.80;90.00;;;;;;5095619;28;20171;-66
2022/02/13 12:37:43;;;;;;;4.53;2.28;;;15.40;87.00;;;;;;5096859;28;20179;-66
2022/02/13 12:40:18;;;;;;;4.13;2.90;;;14.90;86.30;;;;;;5105108;28;20202;-67
2022/02/13 12:42:50;;;;;;;6.50;2.70;;;12.50;90.90;;;;;;5093149;28;20174;-67
2022/02/13 12:45:18;;;;;;;4.95;2.40;;;10.80;92.40;;;;;;5098977;28;20228;-67
2022/02/13 12:47:54;;;;;;;3.17;2.17;;;9.90;93.60;;;;;;5101685;28;20168;-67